sensor_id;sensor_type;location;lat;lon;timestamp;P1;durP1;ratioP1;P2;durP2;ratioP2
44304;SDS011;30019;50.576;8.568;2023-01-24T00:00:38;4.70;;;3.25;;
44304;SDS011;30019;50.576;8.568;2023-01-24T00:03:04;7.47;;;4.32;;
44304;SDS011;30019;50.576;8.568;2023-01-24T00:05:32;6.32;;;4.53;;
44304;SDS011;30019;50.576;8.568;2023-01-24T00:07:58;5.53;;;4.30;;
44304;SDS011;30019;50.576;8.568;2023-01-24T00:10:24;4.90;;;4.12;;
44304;SDS011;30019;50.576;8.568;2023-01-24T00:12:50;7.70;;;4.67;;
44304;SDS011;30019;50.576;8.568;2023-01-24T00:15:15;7.43;;;4.53;;
44304;SDS011;30019;50.576;8.568;2023-01-24T00:17:41;10.93;;;5.12;;
44304;SDS011;30019;50.576;8.568;2023-01-24T00:20:07;7.72;;;5.05;;
44304;SDS011;30019;50.576;8.568;2023-01-24T00:22:33;7.35;;;4.03;;
44304;SDS011;30019;50.576;8.568;2023-01-24T00:24:58;9.98;;;6.12;;
44304;SDS011;30019;50.576;8.568;2023-01-24T00:27:24;8.65;;;5.25;;
44304;SDS011;30019;50.576;8.568;2023-01-24T00:29:50;7.35;;;5.18;;
44304;SDS011;30019;50.576;8.568;2023-01-24T00:32:15;7.45;;;4.60;;
44304;SDS011;30019;50.576;8.568;2023-01-24T00:34:41;9.02;;;5.30;;
44304;SDS011;30019;50.576;8.568;2023-01-24T00:37:06;8.38;;;5.57;;
44304;SDS011;30019;50.576;8.568;2023-01-24T00:39:32;5.85;;;4.45;;
44304;SDS011;30019;50.576;8.568;2023-01-24T00:41:57;7.70;;;5.15;;
44304;SDS011;30019;50.576;8.568;2023-01-24T00:44:23;7.43;;;5.05;;
44304;SDS011;30019;50.576;8.568;2023-01-24T00:46:52;7.85;;;5.65;;
44304;SDS011;30019;50.576;8.568;2023-01-24T00:49:18;7.93;;;5.70;;
44304;SDS011;30019;50.576;8.568;2023-01-24T00:51:44;7.87;;;5.35;;
44304;SDS011;30019;50.576;8.568;2023-01-24T00:54:09;8.10;;;5.00;;
44304;SDS011;30019;50.576;8.568;2023-01-24T00:56:35;8.55;;;5.70;;
44304;SDS011;30019;50.576;8.568;2023-01-24T00:59:01;7.03;;;4.90;;
44304;SDS011;30019;50.576;8.568;2023-01-24T01:01:26;8.18;;;5.93;;
44304;SDS011;30019;50.576;8.568;2023-01-24T01:03:55;9.88;;;5.72;;
44304;SDS011;30019;50.576;8.568;2023-01-24T01:06:22;8.25;;;5.50;;
44304;SDS011;30019;50.576;8.568;2023-01-24T01:08:49;7.20;;;4.40;;
44304;SDS011;30019;50.576;8.568;2023-01-24T01:11:15;8.93;;;5.87;;
44304;SDS011;30019;50.576;8.568;2023-01-24T01:13:42;11.27;;;6.45;;
44304;SDS011;30019;50.576;8.568;2023-01-24T01:16:09;8.00;;;5.30;;
44304;SDS011;30019;50.576;8.568;2023-01-24T01:18:41;9.05;;;5.75;;
44304;SDS011;30019;50.576;8.568;2023-01-24T01:21:07;9.77;;;5.87;;
44304;SDS011;30019;50.576;8.568;2023-01-24T01:23:36;9.43;;;5.32;;
44304;SDS011;30019;50.576;8.568;2023-01-24T01:26:02;5.85;;;3.92;;
44304;SDS011;30019;50.576;8.568;2023-01-24T01:28:30;8.18;;;6.10;;
44304;SDS011;30019;50.576;8.568;2023-01-24T01:30:55;7.28;;;5.72;;
44304;SDS011;30019;50.576;8.568;2023-01-24T01:33:21;9.55;;;6.20;;
44304;SDS011;30019;50.576;8.568;2023-01-24T01:35:48;7.53;;;5.03;;
44304;SDS011;30019;50.576;8.568;2023-01-24T01:38:14;8.75;;;5.57;;
44304;SDS011;30019;50.576;8.568;2023-01-24T01:40:40;6.75;;;5.22;;
44304;SDS011;30019;50.576;8.568;2023-01-24T01:43:13;8.30;;;5.35;;
44304;SDS011;30019;50.576;8.568;2023-01-24T01:45:45;8.05;;;5.80;;
44304;SDS011;30019;50.576;8.568;2023-01-24T01:48:23;9.00;;;6.05;;
44304;SDS011;30019;50.576;8.568;2023-01-24T01:51:02;8.38;;;4.80;;
44304;SDS011;30019;50.576;8.568;2023-01-24T01:53:41;8.32;;;5.07;;
44304;SDS011;30019;50.576;8.568;2023-01-24T01:56:22;8.73;;;5.50;;
44304;SDS011;30019;50.576;8.568;2023-01-24T01:58:57;7.15;;;5.00;;
44304;SDS011;30019;50.576;8.568;2023-01-24T02:01:26;9.68;;;5.87;;
44304;SDS011;30019;50.576;8.568;2023-01-24T02:04:01;8.45;;;6.15;;
44304;SDS011;30019;50.576;8.568;2023-01-24T02:06:39;9.38;;;6.65;;
44304;SDS011;30019;50.576;8.568;2023-01-24T02:09:32;10.32;;;7.10;;
44304;SDS011;30019;50.576;8.568;2023-01-24T02:12:03;12.10;;;7.97;;
44304;SDS011;30019;50.576;8.568;2023-01-24T02:14:31;10.98;;;6.82;;
44304;SDS011;30019;50.576;8.568;2023-01-24T02:17:17;10.63;;;7.05;;
44304;SDS011;30019;50.576;8.568;2023-01-24T02:22:25;9.43;;;7.05;;
44304;SDS011;30019;50.576;8.568;2023-01-24T02:25:06;9.63;;;7.05;;
44304;SDS011;30019;50.576;8.568;2023-01-24T02:27:41;10.73;;;5.72;;
44304;SDS011;30019;50.576;8.568;2023-01-24T02:30:07;10.93;;;6.62;;
44304;SDS011;30019;50.576;8.568;2023-01-24T02:32:33;10.32;;;6.65;;
44304;SDS011;30019;50.576;8.568;2023-01-24T02:34:58;10.88;;;7.40;;
44304;SDS011;30019;50.576;8.568;2023-01-24T02:37:24;16.75;;;9.70;;
44304;SDS011;30019;50.576;8.568;2023-01-24T02:42:21;27.42;;;15.57;;
44304;SDS011;30019;50.576;8.568;2023-01-24T02:45:05;13.55;;;9.10;;
44304;SDS011;30019;50.576;8.568;2023-01-24T02:47:37;12.68;;;8.57;;
44304;SDS011;30019;50.576;8.568;2023-01-24T02:50:15;11.88;;;8.07;;
44304;SDS011;30019;50.576;8.568;2023-01-24T02:52:43;9.98;;;6.55;;
44304;SDS011;30019;50.576;8.568;2023-01-24T02:55:28;11.68;;;8.25;;
44304;SDS011;30019;50.576;8.568;2023-01-24T02:57:54;9.50;;;6.15;;
44304;SDS011;30019;50.576;8.568;2023-01-24T03:00:41;10.50;;;6.57;;
44304;SDS011;30019;50.576;8.568;2023-01-24T03:03:08;13.30;;;8.60;;
44304;SDS011;30019;50.576;8.568;2023-01-24T03:05:37;12.05;;;7.97;;
44304;SDS011;30019;50.576;8.568;2023-01-24T03:08:11;11.52;;;8.15;;
44304;SDS011;30019;50.576;8.568;2023-01-24T03:10:37;12.15;;;8.00;;
44304;SDS011;30019;50.576;8.568;2023-01-24T03:13:03;13.48;;;8.55;;
44304;SDS011;30019;50.576;8.568;2023-01-24T03:15:47;12.48;;;8.65;;
44304;SDS011;30019;50.576;8.568;2023-01-24T03:21:16;8.45;;;5.90;;
44304;SDS011;30019;50.576;8.568;2023-01-24T03:24:00;12.10;;;7.97;;
44304;SDS011;30019;50.576;8.568;2023-01-24T03:26:44;11.77;;;8.15;;
44304;SDS011;30019;50.576;8.568;2023-01-24T03:32:13;13.65;;;9.38;;
44304;SDS011;30019;50.576;8.568;2023-01-24T03:37:23;11.80;;;8.32;;
44304;SDS011;30019;50.576;8.568;2023-01-24T03:40:12;11.68;;;6.97;;
44304;SDS011;30019;50.576;8.568;2023-01-24T03:42:39;12.80;;;8.70;;
44304;SDS011;30019;50.576;8.568;2023-01-24T03:45:14;14.98;;;9.25;;
44304;SDS011;30019;50.576;8.568;2023-01-24T03:47:52;15.63;;;9.63;;
44304;SDS011;30019;50.576;8.568;2023-01-24T03:53:06;17.60;;;9.27;;
44304;SDS011;30019;50.576;8.568;2023-01-24T03:55:33;13.93;;;9.30;;
44304;SDS011;30019;50.576;8.568;2023-01-24T03:57:58;14.80;;;9.68;;
44304;SDS011;30019;50.576;8.568;2023-01-24T04:00:24;13.55;;;8.40;;
44304;SDS011;30019;50.576;8.568;2023-01-24T04:02:49;11.02;;;7.35;;
44304;SDS011;30019;50.576;8.568;2023-01-24T04:05:15;16.80;;;10.13;;
44304;SDS011;30019;50.576;8.568;2023-01-24T04:07:41;14.23;;;9.63;;
44304;SDS011;30019;50.576;8.568;2023-01-24T04:10:07;14.20;;;9.27;;
44304;SDS011;30019;50.576;8.568;2023-01-24T04:12:33;16.25;;;9.48;;
44304;SDS011;30019;50.576;8.568;2023-01-24T04:14:59;13.93;;;9.02;;
44304;SDS011;30019;50.576;8.568;2023-01-24T04:17:25;13.10;;;7.50;;
44304;SDS011;30019;50.576;8.568;2023-01-24T04:19:50;11.38;;;6.40;;
44304;SDS011;30019;50.576;8.568;2023-01-24T04:22:16;12.70;;;8.50;;
44304;SDS011;30019;50.576;8.568;2023-01-24T04:24:43;12.68;;;7.93;;
44304;SDS011;30019;50.576;8.568;2023-01-24T04:27:09;14.90;;;9.45;;
44304;SDS011;30019;50.576;8.568;2023-01-24T04:29:35;14.55;;;9.40;;
44304;SDS011;30019;50.576;8.568;2023-01-24T04:32:01;14.55;;;9.20;;
44304;SDS011;30019;50.576;8.568;2023-01-24T04:34:26;13.82;;;9.10;;
44304;SDS011;30019;50.576;8.568;2023-01-24T04:36:52;13.77;;;9.57;;
44304;SDS011;30019;50.576;8.568;2023-01-24T04:39:19;14.85;;;10.02;;
44304;SDS011;30019;50.576;8.568;2023-01-24T04:41:44;14.57;;;9.63;;
44304;SDS011;30019;50.576;8.568;2023-01-24T04:44:10;15.60;;;9.88;;
44304;SDS011;30019;50.576;8.568;2023-01-24T04:46:35;16.58;;;9.60;;
44304;SDS011;30019;50.576;8.568;2023-01-24T04:49:01;13.13;;;8.85;;
44304;SDS011;30019;50.576;8.568;2023-01-24T04:51:27;13.15;;;9.07;;
44304;SDS011;30019;50.576;8.568;2023-01-24T04:53:52;13.73;;;9.55;;
44304;SDS011;30019;50.576;8.568;2023-01-24T04:56:18;14.27;;;9.10;;
44304;SDS011;30019;50.576;8.568;2023-01-24T04:58:44;14.38;;;9.20;;
44304;SDS011;30019;50.576;8.568;2023-01-24T05:01:09;14.63;;;9.43;;
44304;SDS011;30019;50.576;8.568;2023-01-24T05:03:35;17.33;;;11.80;;
44304;SDS011;30019;50.576;8.568;2023-01-24T05:06:00;15.48;;;9.48;;
44304;SDS011;30019;50.576;8.568;2023-01-24T05:08:26;19.90;;;11.80;;
44304;SDS011;30019;50.576;8.568;2023-01-24T05:10:51;15.88;;;9.65;;
44304;SDS011;30019;50.576;8.568;2023-01-24T05:13:17;17.98;;;10.48;;
44304;SDS011;30019;50.576;8.568;2023-01-24T05:15:49;15.73;;;10.23;;
44304;SDS011;30019;50.576;8.568;2023-01-24T05:18:15;16.65;;;9.80;;
44304;SDS011;30019;50.576;8.568;2023-01-24T05:20:42;17.50;;;10.93;;
44304;SDS011;30019;50.576;8.568;2023-01-24T05:23:08;14.13;;;9.45;;
44304;SDS011;30019;50.576;8.568;2023-01-24T05:25:34;18.00;;;10.98;;
44304;SDS011;30019;50.576;8.568;2023-01-24T05:27:59;17.83;;;11.20;;
44304;SDS011;30019;50.576;8.568;2023-01-24T05:30:25;16.95;;;9.95;;
44304;SDS011;30019;50.576;8.568;2023-01-24T05:32:54;18.17;;;10.90;;
44304;SDS011;30019;50.576;8.568;2023-01-24T05:35:21;18.73;;;10.85;;
44304;SDS011;30019;50.576;8.568;2023-01-24T05:37:46;22.33;;;11.70;;
44304;SDS011;30019;50.576;8.568;2023-01-24T05:40:12;19.65;;;12.80;;
44304;SDS011;30019;50.576;8.568;2023-01-24T05:42:39;20.33;;;12.20;;
44304;SDS011;30019;50.576;8.568;2023-01-24T05:45:07;18.00;;;10.18;;
44304;SDS011;30019;50.576;8.568;2023-01-24T05:47:33;16.90;;;10.98;;
44304;SDS011;30019;50.576;8.568;2023-01-24T05:49:58;19.85;;;12.37;;
44304;SDS011;30019;50.576;8.568;2023-01-24T05:52:24;21.17;;;11.80;;
44304;SDS011;30019;50.576;8.568;2023-01-24T05:54:50;21.77;;;11.82;;
44304;SDS011;30019;50.576;8.568;2023-01-24T05:57:16;20.48;;;11.88;;
44304;SDS011;30019;50.576;8.568;2023-01-24T05:59:42;21.67;;;11.70;;
44304;SDS011;30019;50.576;8.568;2023-01-24T06:02:08;20.27;;;12.52;;
44304;SDS011;30019;50.576;8.568;2023-01-24T06:04:34;19.95;;;11.10;;
44304;SDS011;30019;50.576;8.568;2023-01-24T06:07:00;20.55;;;12.15;;
44304;SDS011;30019;50.576;8.568;2023-01-24T06:09:25;20.92;;;12.50;;
44304;SDS011;30019;50.576;8.568;2023-01-24T06:11:51;20.95;;;12.55;;
44304;SDS011;30019;50.576;8.568;2023-01-24T06:14:17;21.10;;;12.18;;
44304;SDS011;30019;50.576;8.568;2023-01-24T06:16:43;21.10;;;12.73;;
44304;SDS011;30019;50.576;8.568;2023-01-24T06:19:10;21.35;;;12.93;;
44304;SDS011;30019;50.576;8.568;2023-01-24T06:21:40;21.75;;;13.43;;
44304;SDS011;30019;50.576;8.568;2023-01-24T06:24:18;20.17;;;12.35;;
44304;SDS011;30019;50.576;8.568;2023-01-24T06:26:46;21.37;;;13.20;;
44304;SDS011;30019;50.576;8.568;2023-01-24T06:29:13;22.45;;;14.10;;
44304;SDS011;30019;50.576;8.568;2023-01-24T06:34:32;21.57;;;13.60;;
44304;SDS011;30019;50.576;8.568;2023-01-24T06:37:20;23.73;;;13.80;;
44304;SDS011;30019;50.576;8.568;2023-01-24T06:39:51;19.73;;;11.23;;
44304;SDS011;30019;50.576;8.568;2023-01-24T06:42:18;18.77;;;11.00;;
44304;SDS011;30019;50.576;8.568;2023-01-24T06:44:45;19.37;;;12.18;;
44304;SDS011;30019;50.576;8.568;2023-01-24T06:47:11;21.23;;;13.80;;
44304;SDS011;30019;50.576;8.568;2023-01-24T06:49:37;21.27;;;12.45;;
44304;SDS011;30019;50.576;8.568;2023-01-24T06:52:03;23.02;;;14.18;;
44304;SDS011;30019;50.576;8.568;2023-01-24T06:54:29;24.05;;;14.40;;
44304;SDS011;30019;50.576;8.568;2023-01-24T06:56:55;24.17;;;14.70;;
44304;SDS011;30019;50.576;8.568;2023-01-24T06:59:20;22.77;;;13.70;;
44304;SDS011;30019;50.576;8.568;2023-01-24T07:01:48;20.80;;;12.52;;
44304;SDS011;30019;50.576;8.568;2023-01-24T07:04:14;22.37;;;13.48;;
44304;SDS011;30019;50.576;8.568;2023-01-24T07:06:40;20.88;;;13.07;;
44304;SDS011;30019;50.576;8.568;2023-01-24T07:09:05;21.12;;;12.27;;
44304;SDS011;30019;50.576;8.568;2023-01-24T07:11:31;20.85;;;13.07;;
44304;SDS011;30019;50.576;8.568;2023-01-24T07:13:56;21.13;;;13.33;;
44304;SDS011;30019;50.576;8.568;2023-01-24T07:16:22;23.52;;;12.65;;
44304;SDS011;30019;50.576;8.568;2023-01-24T07:18:48;21.20;;;13.35;;
44304;SDS011;30019;50.576;8.568;2023-01-24T07:21:14;22.95;;;13.40;;
44304;SDS011;30019;50.576;8.568;2023-01-24T07:23:43;24.30;;;14.52;;
44304;SDS011;30019;50.576;8.568;2023-01-24T07:26:09;21.12;;;12.82;;
44304;SDS011;30019;50.576;8.568;2023-01-24T07:28:36;21.62;;;13.27;;
44304;SDS011;30019;50.576;8.568;2023-01-24T07:31:05;24.27;;;14.25;;
44304;SDS011;30019;50.576;8.568;2023-01-24T07:33:31;24.20;;;15.40;;
44304;SDS011;30019;50.576;8.568;2023-01-24T07:35:57;24.05;;;14.60;;
44304;SDS011;30019;50.576;8.568;2023-01-24T07:38:23;23.12;;;14.48;;
44304;SDS011;30019;50.576;8.568;2023-01-24T07:40:48;23.60;;;14.77;;
44304;SDS011;30019;50.576;8.568;2023-01-24T07:43:14;30.75;;;16.80;;
44304;SDS011;30019;50.576;8.568;2023-01-24T07:45:40;26.65;;;16.05;;
44304;SDS011;30019;50.576;8.568;2023-01-24T07:48:09;25.37;;;15.13;;
44304;SDS011;30019;50.576;8.568;2023-01-24T07:50:35;25.12;;;15.25;;
44304;SDS011;30019;50.576;8.568;2023-01-24T07:53:00;24.67;;;14.73;;
44304;SDS011;30019;50.576;8.568;2023-01-24T07:55:26;22.17;;;12.18;;
44304;SDS011;30019;50.576;8.568;2023-01-24T07:57:56;20.90;;;12.48;;
44304;SDS011;30019;50.576;8.568;2023-01-24T08:00:26;20.48;;;11.23;;
44304;SDS011;30019;50.576;8.568;2023-01-24T08:02:52;21.12;;;13.62;;
44304;SDS011;30019;50.576;8.568;2023-01-24T08:05:17;20.10;;;12.60;;
44304;SDS011;30019;50.576;8.568;2023-01-24T08:07:43;18.87;;;11.68;;
44304;SDS011;30019;50.576;8.568;2023-01-24T08:10:09;21.23;;;12.40;;
44304;SDS011;30019;50.576;8.568;2023-01-24T08:12:34;19.80;;;11.65;;
44304;SDS011;30019;50.576;8.568;2023-01-24T08:15:00;18.73;;;11.40;;
44304;SDS011;30019;50.576;8.568;2023-01-24T08:17:26;20.15;;;11.50;;
44304;SDS011;30019;50.576;8.568;2023-01-24T08:19:51;20.77;;;12.40;;
44304;SDS011;30019;50.576;8.568;2023-01-24T08:22:17;21.70;;;12.60;;
44304;SDS011;30019;50.576;8.568;2023-01-24T08:24:42;17.37;;;11.57;;
44304;SDS011;30019;50.576;8.568;2023-01-24T08:27:08;18.55;;;11.30;;
44304;SDS011;30019;50.576;8.568;2023-01-24T08:29:33;21.10;;;12.98;;
44304;SDS011;30019;50.576;8.568;2023-01-24T08:31:59;18.65;;;11.60;;
44304;SDS011;30019;50.576;8.568;2023-01-24T08:34:25;19.55;;;12.23;;
44304;SDS011;30019;50.576;8.568;2023-01-24T08:36:50;18.40;;;11.65;;
44304;SDS011;30019;50.576;8.568;2023-01-24T08:39:16;18.60;;;11.35;;
44304;SDS011;30019;50.576;8.568;2023-01-24T08:41:42;21.02;;;12.98;;
44304;SDS011;30019;50.576;8.568;2023-01-24T08:44:10;22.02;;;13.38;;
44304;SDS011;30019;50.576;8.568;2023-01-24T08:46:36;20.23;;;11.95;;
44304;SDS011;30019;50.576;8.568;2023-01-24T08:49:02;21.85;;;12.73;;
44304;SDS011;30019;50.576;8.568;2023-01-24T08:51:28;19.17;;;12.50;;
44304;SDS011;30019;50.576;8.568;2023-01-24T08:53:54;15.23;;;9.52;;
44304;SDS011;30019;50.576;8.568;2023-01-24T08:56:20;21.80;;;13.15;;
44304;SDS011;30019;50.576;8.568;2023-01-24T08:58:45;20.42;;;11.40;;
44304;SDS011;30019;50.576;8.568;2023-01-24T09:01:11;24.77;;;11.07;;
44304;SDS011;30019;50.576;8.568;2023-01-24T09:03:37;20.23;;;11.73;;
44304;SDS011;30019;50.576;8.568;2023-01-24T09:06:03;16.90;;;10.55;;
44304;SDS011;30019;50.576;8.568;2023-01-24T09:08:29;18.23;;;10.02;;
44304;SDS011;30019;50.576;8.568;2023-01-24T09:10:59;19.55;;;11.73;;
44304;SDS011;30019;50.576;8.568;2023-01-24T09:13:25;18.60;;;10.63;;
44304;SDS011;30019;50.576;8.568;2023-01-24T09:15:52;16.67;;;10.13;;
44304;SDS011;30019;50.576;8.568;2023-01-24T09:18:18;13.75;;;8.82;;
44304;SDS011;30019;50.576;8.568;2023-01-24T09:20:43;19.08;;;11.07;;
44304;SDS011;30019;50.576;8.568;2023-01-24T09:23:09;18.73;;;10.00;;
44304;SDS011;30019;50.576;8.568;2023-01-24T09:25:36;18.25;;;9.68;;
44304;SDS011;30019;50.576;8.568;2023-01-24T09:28:02;19.55;;;10.05;;
44304;SDS011;30019;50.576;8.568;2023-01-24T09:30:28;19.05;;;10.05;;
44304;SDS011;30019;50.576;8.568;2023-01-24T09:32:53;19.83;;;9.82;;
44304;SDS011;30019;50.576;8.568;2023-01-24T09:35:19;18.62;;;10.65;;
44304;SDS011;30019;50.576;8.568;2023-01-24T09:37:45;16.92;;;10.05;;
44304;SDS011;30019;50.576;8.568;2023-01-24T09:42:44;18.62;;;11.82;;
44304;SDS011;30019;50.576;8.568;2023-01-24T09:45:43;16.00;;;8.90;;
44304;SDS011;30019;50.576;8.568;2023-01-24T09:48:21;18.45;;;10.48;;
44304;SDS011;30019;50.576;8.568;2023-01-24T09:51:30;17.60;;;10.00;;
44304;SDS011;30019;50.576;8.568;2023-01-24T09:53:55;17.85;;;11.43;;
44304;SDS011;30019;50.576;8.568;2023-01-24T09:56:33;17.92;;;10.65;;
44304;SDS011;30019;50.576;8.568;2023-01-24T09:59:05;18.83;;;10.00;;
44304;SDS011;30019;50.576;8.568;2023-01-24T10:01:38;19.23;;;11.50;;
44304;SDS011;30019;50.576;8.568;2023-01-24T10:04:10;18.58;;;11.57;;
44304;SDS011;30019;50.576;8.568;2023-01-24T10:12:25;16.33;;;9.50;;
44304;SDS011;30019;50.576;8.568;2023-01-24T10:15:07;20.25;;;11.27;;
44304;SDS011;30019;50.576;8.568;2023-01-24T10:20:54;19.83;;;11.48;;
44304;SDS011;30019;50.576;8.568;2023-01-24T10:23:26;13.93;;;8.48;;
44304;SDS011;30019;50.576;8.568;2023-01-24T10:25:57;18.35;;;11.82;;
44304;SDS011;30019;50.576;8.568;2023-01-24T10:28:33;17.50;;;10.43;;
44304;SDS011;30019;50.576;8.568;2023-01-24T10:31:07;16.23;;;9.73;;
44304;SDS011;30019;50.576;8.568;2023-01-24T10:33:39;13.65;;;9.02;;
44304;SDS011;30019;50.576;8.568;2023-01-24T10:38:41;14.10;;;8.82;;
44304;SDS011;30019;50.576;8.568;2023-01-24T10:43:36;19.00;;;9.95;;
44304;SDS011;30019;50.576;8.568;2023-01-24T10:46:50;16.52;;;9.35;;
44304;SDS011;30019;50.576;8.568;2023-01-24T10:51:24;15.05;;;8.90;;
44304;SDS011;30019;50.576;8.568;2023-01-24T10:53:50;15.52;;;9.77;;
44304;SDS011;30019;50.576;8.568;2023-01-24T10:56:20;16.20;;;10.15;;
44304;SDS011;30019;50.576;8.568;2023-01-24T10:58:59;18.58;;;11.32;;
44304;SDS011;30019;50.576;8.568;2023-01-24T11:04:11;13.35;;;9.43;;
44304;SDS011;30019;50.576;8.568;2023-01-24T11:06:45;16.15;;;9.50;;
44304;SDS011;30019;50.576;8.568;2023-01-24T11:09:14;12.82;;;7.87;;
44304;SDS011;30019;50.576;8.568;2023-01-24T11:11:52;14.32;;;9.73;;
44304;SDS011;30019;50.576;8.568;2023-01-24T11:14:20;12.93;;;7.90;;
44304;SDS011;30019;50.576;8.568;2023-01-24T11:16:56;12.45;;;8.40;;
44304;SDS011;30019;50.576;8.568;2023-01-24T11:19:30;11.48;;;7.72;;
44304;SDS011;30019;50.576;8.568;2023-01-24T11:21:58;17.25;;;8.40;;
44304;SDS011;30019;50.576;8.568;2023-01-24T11:24:26;11.25;;;7.85;;
44304;SDS011;30019;50.576;8.568;2023-01-24T11:27:12;12.48;;;7.82;;
44304;SDS011;30019;50.576;8.568;2023-01-24T11:29:40;11.88;;;7.97;;
44304;SDS011;30019;50.576;8.568;2023-01-24T11:32:16;13.13;;;8.45;;
44304;SDS011;30019;50.576;8.568;2023-01-24T11:34:52;14.10;;;8.18;;
44304;SDS011;30019;50.576;8.568;2023-01-24T11:40:36;12.27;;;7.60;;
44304;SDS011;30019;50.576;8.568;2023-01-24T11:43:19;14.77;;;8.20;;
44304;SDS011;30019;50.576;8.568;2023-01-24T11:48:35;20.45;;;9.73;;
44304;SDS011;30019;50.576;8.568;2023-01-24T11:57:12;24.05;;;8.20;;
44304;SDS011;30019;50.576;8.568;2023-01-24T12:00:45;13.07;;;8.10;;
44304;SDS011;30019;50.576;8.568;2023-01-24T12:03:23;12.65;;;7.32;;
44304;SDS011;30019;50.576;8.568;2023-01-24T12:08:44;16.37;;;8.55;;
44304;SDS011;30019;50.576;8.568;2023-01-24T12:19:05;10.70;;;7.05;;
44304;SDS011;30019;50.576;8.568;2023-01-24T12:21:32;12.27;;;7.15;;
44304;SDS011;30019;50.576;8.568;2023-01-24T12:26:38;10.20;;;7.07;;
44304;SDS011;30019;50.576;8.568;2023-01-24T12:29:18;12.00;;;8.02;;
44304;SDS011;30019;50.576;8.568;2023-01-24T12:31:50;12.90;;;7.93;;
44304;SDS011;30019;50.576;8.568;2023-01-24T12:34:30;16.17;;;8.80;;
44304;SDS011;30019;50.576;8.568;2023-01-24T12:37:23;14.95;;;8.02;;
44304;SDS011;30019;50.576;8.568;2023-01-24T12:42:46;15.55;;;7.93;;
44304;SDS011;30019;50.576;8.568;2023-01-24T12:45:37;11.95;;;7.80;;
44304;SDS011;30019;50.576;8.568;2023-01-24T12:50:42;14.60;;;9.90;;
44304;SDS011;30019;50.576;8.568;2023-01-24T12:56:00;12.90;;;8.30;;
44304;SDS011;30019;50.576;8.568;2023-01-24T12:58:39;10.30;;;7.32;;
44304;SDS011;30019;50.576;8.568;2023-01-24T13:09:29;20.97;;;9.50;;
44304;SDS011;30019;50.576;8.568;2023-01-24T13:11:57;14.32;;;8.40;;
44304;SDS011;30019;50.576;8.568;2023-01-24T13:14:28;16.40;;;9.00;;
44304;SDS011;30019;50.576;8.568;2023-01-24T13:30:15;13.98;;;8.35;;
44304;SDS011;30019;50.576;8.568;2023-01-24T13:33:01;14.80;;;8.80;;
44304;SDS011;30019;50.576;8.568;2023-01-24T13:35:29;11.48;;;7.55;;
44304;SDS011;30019;50.576;8.568;2023-01-24T13:38:02;14.98;;;8.35;;
44304;SDS011;30019;50.576;8.568;2023-01-24T13:40:29;12.37;;;6.78;;
44304;SDS011;30019;50.576;8.568;2023-01-24T13:43:00;13.75;;;9.32;;
44304;SDS011;30019;50.576;8.568;2023-01-24T13:45:46;17.83;;;9.50;;
44304;SDS011;30019;50.576;8.568;2023-01-24T13:54:47;16.48;;;9.45;;
44304;SDS011;30019;50.576;8.568;2023-01-24T13:59:57;14.70;;;9.68;;
44304;SDS011;30019;50.576;8.568;2023-01-24T14:02:41;12.02;;;7.75;;
44304;SDS011;30019;50.576;8.568;2023-01-24T14:07:57;11.20;;;7.72;;
44304;SDS011;30019;50.576;8.568;2023-01-24T14:10:35;11.40;;;6.93;;
44304;SDS011;30019;50.576;8.568;2023-01-24T14:13:03;13.30;;;8.80;;
44304;SDS011;30019;50.576;8.568;2023-01-24T14:15:37;14.60;;;9.65;;
44304;SDS011;30019;50.576;8.568;2023-01-24T14:18:38;11.32;;;7.25;;
44304;SDS011;30019;50.576;8.568;2023-01-24T14:21:24;11.82;;;7.87;;
44304;SDS011;30019;50.576;8.568;2023-01-24T14:24:00;13.85;;;9.13;;
44304;SDS011;30019;50.576;8.568;2023-01-24T14:26:40;14.30;;;8.68;;
44304;SDS011;30019;50.576;8.568;2023-01-24T14:29:09;16.75;;;8.90;;
44304;SDS011;30019;50.576;8.568;2023-01-24T14:31:41;16.37;;;10.80;;
44304;SDS011;30019;50.576;8.568;2023-01-24T14:34:13;12.90;;;8.77;;
44304;SDS011;30019;50.576;8.568;2023-01-24T14:37:03;15.30;;;9.57;;
44304;SDS011;30019;50.576;8.568;2023-01-24T14:39:34;13.40;;;8.90;;
44304;SDS011;30019;50.576;8.568;2023-01-24T14:42:04;22.13;;;12.90;;
44304;SDS011;30019;50.576;8.568;2023-01-24T14:44:32;18.52;;;11.27;;
44304;SDS011;30019;50.576;8.568;2023-01-24T14:47:03;12.23;;;8.63;;
44304;SDS011;30019;50.576;8.568;2023-01-24T14:49:54;13.43;;;8.68;;
44304;SDS011;30019;50.576;8.568;2023-01-24T14:54:51;12.85;;;9.02;;
44304;SDS011;30019;50.576;8.568;2023-01-24T14:57:25;26.60;;;15.10;;
44304;SDS011;30019;50.576;8.568;2023-01-24T15:02:37;12.37;;;9.05;;
44304;SDS011;30019;50.576;8.568;2023-01-24T15:07:50;11.15;;;7.68;;
44304;SDS011;30019;50.576;8.568;2023-01-24T15:10:21;10.68;;;7.32;;
44304;SDS011;30019;50.576;8.568;2023-01-24T15:12:50;13.60;;;9.75;;
44304;SDS011;30019;50.576;8.568;2023-01-24T15:15:17;13.43;;;7.70;;
44304;SDS011;30019;50.576;8.568;2023-01-24T15:17:44;13.18;;;8.93;;
44304;SDS011;30019;50.576;8.568;2023-01-24T15:20:16;16.20;;;9.15;;
44304;SDS011;30019;50.576;8.568;2023-01-24T15:22:49;11.60;;;7.53;;
44304;SDS011;30019;50.576;8.568;2023-01-24T15:25:19;16.00;;;9.98;;
44304;SDS011;30019;50.576;8.568;2023-01-24T15:27:46;15.27;;;9.90;;
44304;SDS011;30019;50.576;8.568;2023-01-24T15:30:16;16.12;;;9.13;;
44304;SDS011;30019;50.576;8.568;2023-01-24T15:32:50;14.73;;;8.10;;
44304;SDS011;30019;50.576;8.568;2023-01-24T15:38:00;12.02;;;8.27;;
44304;SDS011;30019;50.576;8.568;2023-01-24T15:40:28;12.52;;;8.07;;
44304;SDS011;30019;50.576;8.568;2023-01-24T15:42:54;10.43;;;7.62;;
44304;SDS011;30019;50.576;8.568;2023-01-24T15:45:41;12.10;;;7.28;;
44304;SDS011;30019;50.576;8.568;2023-01-24T15:48:19;40.83;;;19.87;;
44304;SDS011;30019;50.576;8.568;2023-01-24T15:50:56;97.35;;;45.30;;
44304;SDS011;30019;50.576;8.568;2023-01-24T15:53:30;12.88;;;8.90;;
44304;SDS011;30019;50.576;8.568;2023-01-24T15:55:57;15.85;;;8.43;;
44304;SDS011;30019;50.576;8.568;2023-01-24T15:58:28;11.38;;;6.95;;
44304;SDS011;30019;50.576;8.568;2023-01-24T16:00:55;12.75;;;7.93;;
44304;SDS011;30019;50.576;8.568;2023-01-24T16:03:22;10.10;;;7.00;;
44304;SDS011;30019;50.576;8.568;2023-01-24T16:05:48;9.30;;;7.53;;
44304;SDS011;30019;50.576;8.568;2023-01-24T16:08:13;7.70;;;6.40;;
44304;SDS011;30019;50.576;8.568;2023-01-24T16:10:39;11.27;;;6.45;;
44304;SDS011;30019;50.576;8.568;2023-01-24T16:13:07;8.45;;;6.07;;
44304;SDS011;30019;50.576;8.568;2023-01-24T16:15:46;8.45;;;6.55;;
44304;SDS011;30019;50.576;8.568;2023-01-24T16:18:12;9.50;;;7.10;;
44304;SDS011;30019;50.576;8.568;2023-01-24T16:20:37;13.10;;;7.55;;
44304;SDS011;30019;50.576;8.568;2023-01-24T16:23:03;11.30;;;7.03;;
44304;SDS011;30019;50.576;8.568;2023-01-24T16:25:29;11.20;;;6.93;;
44304;SDS011;30019;50.576;8.568;2023-01-24T16:27:54;9.55;;;6.40;;
44304;SDS011;30019;50.576;8.568;2023-01-24T16:30:24;9.57;;;5.32;;
44304;SDS011;30019;50.576;8.568;2023-01-24T16:32:51;7.87;;;5.57;;
44304;SDS011;30019;50.576;8.568;2023-01-24T16:35:17;7.60;;;6.05;;
44304;SDS011;30019;50.576;8.568;2023-01-24T16:37:43;8.75;;;5.72;;
44304;SDS011;30019;50.576;8.568;2023-01-24T16:40:13;9.20;;;6.45;;
44304;SDS011;30019;50.576;8.568;2023-01-24T16:42:41;8.77;;;6.25;;
44304;SDS011;30019;50.576;8.568;2023-01-24T16:45:16;7.47;;;5.80;;
44304;SDS011;30019;50.576;8.568;2023-01-24T16:47:43;10.70;;;6.70;;